createdAt,value
2023-02-12T00:00:03.234Z,21.51
2023-02-12T00:02:30.235Z,20.73
2023-02-12T00:04:57.274Z,20.81
2023-02-12T00:07:24.480Z,20.35
2023-02-12T00:09:51.068Z,19.67
2023-02-12T00:12:17.428Z,19.88
2023-02-12T00:14:43.880Z,20.50
2023-02-12T00:17:10.231Z,21.20
2023-02-12T00:19:36.671Z,20.46
2023-02-12T00:22:03.068Z,20.51
2023-02-12T00:24:29.755Z,20.69
2023-02-12T00:26:56.156Z,20.64
2023-02-12T00:29:22.562Z,21.18
2023-02-12T00:31:50.654Z,21.27
2023-02-12T00:34:24.217Z,21.23
2023-02-12T00:36:52.362Z,22.21
2023-02-12T00:39:26.378Z,23.32
2023-02-12T00:41:53.630Z,25.89
2023-02-12T00:44:22.140Z,28.44
2023-02-12T00:46:48.792Z,27.43
2023-02-12T00:49:17.581Z,27.72
2023-02-12T00:51:43.965Z,27.46
2023-02-12T00:54:11.586Z,24.82
2023-02-12T00:56:38.000Z,24.69
2023-02-12T00:59:04.355Z,25.02
2023-02-12T01:01:30.723Z,25.36
2023-02-12T01:03:57.157Z,24.22
2023-02-12T01:06:35.076Z,25.36
2023-02-12T01:09:01.511Z,23.92
2023-02-12T01:11:27.866Z,24.45
2023-02-12T01:13:54.872Z,23.87
2023-02-12T01:16:21.302Z,22.74
2023-02-12T01:18:48.230Z,21.85
2023-02-12T01:21:15.445Z,21.95
2023-02-12T01:23:44.175Z,23.37
2023-02-12T01:26:11.597Z,22.74
2023-02-12T01:28:37.990Z,21.27
2023-02-12T01:31:04.551Z,19.39
2023-02-12T01:33:30.972Z,20.36
2023-02-12T01:35:57.532Z,20.24
2023-02-12T01:38:24.078Z,20.38
2023-02-12T01:40:50.558Z,19.46
2023-02-12T01:43:17.435Z,19.92
2023-02-12T01:45:43.793Z,21.09
2023-02-12T01:48:12.473Z,22.32
2023-02-12T01:50:38.986Z,22.86
2023-02-12T01:53:05.525Z,23.63
2023-02-12T01:55:32.109Z,23.22
2023-02-12T01:57:58.692Z,24.43
2023-02-12T02:00:26.066Z,23.86
2023-02-12T02:02:55.002Z,23.50
2023-02-12T02:05:21.461Z,23.09
2023-02-12T02:07:47.858Z,23.35
2023-02-12T02:10:16.654Z,22.60
2023-02-12T02:12:43.370Z,21.95
2023-02-12T02:15:09.765Z,22.46
2023-02-12T02:17:36.233Z,21.50
2023-02-12T02:20:02.581Z,20.55
2023-02-12T02:22:29.068Z,21.23
2023-02-12T02:24:55.696Z,21.73
2023-02-12T02:27:23.059Z,20.62
2023-02-12T02:29:50.455Z,18.66
2023-02-12T02:32:16.863Z,19.07
2023-02-12T02:34:46.667Z,18.52
2023-02-12T02:37:14.406Z,17.26
2023-02-12T02:39:41.633Z,18.15
2023-02-12T02:42:08.131Z,18.83
2023-02-12T02:44:34.503Z,19.15
2023-02-12T02:47:01.802Z,19.12
2023-02-12T02:49:33.529Z,19.95
2023-02-12T02:51:59.896Z,18.94
2023-02-12T02:54:29.112Z,18.70
2023-02-12T02:56:56.687Z,19.69
2023-02-12T02:59:23.419Z,22.41
2023-02-12T03:01:52.321Z,22.61
2023-02-12T03:04:18.657Z,24.32
2023-02-12T03:06:45.212Z,25.40
2023-02-12T03:09:11.654Z,24.17
2023-02-12T03:11:38.018Z,22.73
2023-02-12T03:14:04.641Z,21.55
2023-02-12T03:16:35.108Z,21.21
2023-02-12T03:21:42.321Z,25.11
2023-02-12T03:24:09.874Z,24.50
2023-02-12T03:26:36.257Z,23.78
2023-02-12T03:29:10.393Z,23.12
2023-02-12T03:31:36.835Z,22.53
2023-02-12T03:34:03.287Z,22.48
2023-02-12T03:36:30.464Z,22.19
2023-02-12T03:39:08.945Z,21.82
2023-02-12T03:41:48.147Z,21.53
2023-02-12T03:44:17.527Z,21.02
2023-02-12T03:46:43.918Z,20.49
2023-02-12T03:49:12.738Z,20.48
2023-02-12T03:51:39.225Z,20.72
2023-02-12T03:54:06.632Z,19.90
2023-02-12T03:56:33.024Z,19.70
2023-02-12T03:58:59.581Z,20.09
2023-02-12T04:01:26.413Z,21.29
2023-02-12T04:03:53.182Z,22.96
2023-02-12T04:06:22.256Z,22.06
2023-02-12T04:08:48.600Z,20.69
2023-02-12T04:11:15.023Z,21.00
2023-02-12T04:13:42.042Z,21.45
2023-02-12T04:16:08.422Z,20.69
2023-02-12T04:18:38.144Z,19.97
2023-02-12T04:21:04.495Z,20.61
2023-02-12T04:23:33.334Z,20.84
2023-02-12T04:26:00.040Z,20.45
2023-02-12T04:28:26.589Z,19.65
2023-02-12T04:30:53.474Z,20.79
2023-02-12T04:33:24.550Z,20.12
2023-02-12T04:35:50.912Z,19.77
2023-02-12T04:38:19.303Z,18.40
2023-02-12T04:40:47.032Z,18.26
2023-02-12T04:43:13.793Z,17.65
2023-02-12T04:45:43.695Z,17.28
2023-02-12T04:48:12.415Z,16.36
2023-02-12T04:50:40.035Z,16.78
2023-02-12T04:53:06.412Z,16.89
2023-02-12T04:55:33.067Z,16.34
2023-02-12T04:58:07.077Z,15.97
2023-02-12T05:00:33.500Z,14.75
2023-02-12T05:02:59.879Z,14.48
2023-02-12T05:05:26.448Z,14.92
2023-02-12T05:07:53.901Z,15.91
2023-02-12T05:10:20.346Z,15.89
2023-02-12T05:12:46.859Z,15.94
2023-02-12T05:15:17.571Z,16.17
2023-02-12T05:17:50.196Z,16.01
2023-02-12T05:20:20.972Z,16.25
2023-02-12T05:22:47.356Z,15.57
2023-02-12T05:25:13.751Z,15.79
2023-02-12T05:27:40.291Z,15.63
2023-02-12T05:30:06.716Z,15.79
2023-02-12T05:32:33.076Z,15.57
2023-02-12T05:34:59.990Z,15.95
2023-02-12T05:37:27.416Z,16.38
2023-02-12T05:39:54.491Z,16.86
2023-02-12T05:42:22.914Z,18.11
2023-02-12T05:44:49.254Z,18.38
2023-02-12T05:47:17.717Z,18.55
2023-02-12T05:49:45.150Z,23.60
2023-02-12T05:52:12.000Z,23.17
2023-02-12T05:54:38.360Z,23.15
2023-02-12T05:57:04.752Z,21.75
2023-02-12T05:59:31.670Z,20.60
2023-02-12T06:01:59.864Z,21.91
2023-02-12T06:04:26.374Z,21.93
2023-02-12T06:06:53.196Z,21.53
2023-02-12T06:09:20.509Z,21.66
2023-02-12T06:11:54.918Z,20.54
2023-02-12T06:14:26.199Z,19.76
2023-02-12T06:16:54.433Z,20.12
2023-02-12T06:19:22.438Z,20.05
2023-02-12T06:21:56.786Z,19.77
2023-02-12T06:24:24.035Z,21.03
2023-02-12T06:26:50.628Z,19.90
2023-02-12T06:29:17.262Z,18.69
2023-02-12T06:31:44.943Z,19.17
2023-02-12T06:34:19.127Z,19.43
2023-02-12T06:36:45.860Z,20.86
2023-02-12T06:39:13.653Z,20.88
2023-02-12T06:41:43.442Z,21.06
2023-02-12T06:44:10.387Z,20.94
2023-02-12T06:46:37.164Z,19.01
2023-02-12T06:49:05.290Z,19.80
2023-02-12T07:59:23.213Z,27.37
2023-02-12T08:07:23.378Z,26.63
2023-02-12T08:09:52.938Z,26.90
2023-02-12T08:12:22.453Z,27.33
2023-02-12T08:14:51.977Z,26.92
2023-02-12T08:17:20.674Z,27.40
2023-02-12T08:19:49.076Z,28.76
2023-02-12T08:22:15.414Z,28.79
2023-02-12T08:24:42.403Z,29.54
2023-02-12T08:27:08.833Z,29.54
2023-02-12T08:29:35.223Z,30.07
2023-02-12T08:32:03.251Z,29.79
2023-02-12T08:34:29.769Z,30.06
2023-02-12T08:36:58.938Z,31.05
2023-02-12T08:39:25.390Z,31.77
2023-02-12T08:41:55.214Z,31.46
2023-02-12T08:44:21.573Z,31.29
2023-02-12T08:46:48.312Z,31.00
2023-02-12T08:49:17.097Z,30.63
2023-02-12T08:51:44.619Z,30.55
2023-02-12T08:54:11.213Z,29.32
2023-02-12T08:56:37.686Z,29.11
2023-02-12T08:59:04.083Z,29.19
2023-02-12T09:01:30.632Z,30.08
2023-02-12T09:03:57.033Z,31.81
2023-02-12T09:06:25.260Z,33.47
2023-02-12T09:08:51.732Z,32.38
2023-02-12T09:11:18.485Z,32.81
2023-02-12T09:13:46.682Z,33.45
2023-02-12T09:16:13.187Z,34.48
2023-02-12T09:18:42.459Z,34.48
2023-02-12T09:21:12.033Z,33.41
2023-02-12T09:23:38.996Z,34.89
2023-02-12T09:26:05.941Z,34.43
2023-02-12T09:28:32.908Z,34.18
2023-02-12T09:30:59.752Z,34.25
2023-02-12T09:33:26.174Z,34.66
2023-02-12T09:35:52.532Z,34.78
2023-02-12T09:38:24.283Z,33.69
2023-02-12T09:40:50.725Z,34.02
2023-02-12T09:43:24.305Z,34.74
2023-02-12T09:45:51.441Z,34.78
2023-02-12T09:48:17.962Z,33.48
2023-02-12T09:50:46.558Z,34.09
2023-02-12T09:53:13.034Z,35.07
2023-02-12T09:55:40.435Z,33.79
2023-02-12T09:58:07.042Z,33.59
2023-02-12T10:00:33.440Z,33.27
2023-02-12T10:02:59.891Z,34.70
2023-02-12T10:05:26.779Z,34.81
2023-02-12T10:07:53.958Z,34.79
2023-02-12T10:10:21.385Z,35.48
2023-02-12T10:12:47.737Z,35.87
2023-02-12T10:15:14.768Z,35.41
2023-02-12T10:17:41.195Z,35.32
2023-02-12T10:20:20.216Z,34.65
2023-02-12T10:22:56.509Z,34.57
2023-02-12T10:25:25.748Z,34.45
2023-02-12T10:27:54.624Z,34.67
2023-02-12T10:30:22.029Z,35.77
2023-02-12T10:32:48.639Z,34.04
2023-02-12T10:35:15.010Z,35.03
2023-02-12T10:37:41.901Z,33.95
2023-02-12T10:40:08.934Z,34.16
2023-02-12T14:54:04.741Z,33.92
2023-02-12T14:56:31.066Z,34.31
2023-02-12T14:58:57.424Z,34.05
2023-02-12T15:01:23.794Z,34.54
2023-02-12T15:03:50.542Z,34.60
2023-02-12T15:06:16.917Z,33.94
2023-02-12T15:08:43.270Z,33.88
2023-02-12T15:11:09.641Z,33.81
2023-02-12T15:13:36.057Z,34.53
2023-02-12T15:16:02.948Z,33.99
2023-02-12T16:39:38.374Z,35.34
2023-02-12T16:42:04.825Z,35.76
2023-02-12T16:44:31.225Z,35.20
2023-02-12T16:46:57.838Z,35.33
2023-02-12T16:49:24.344Z,35.43
2023-02-12T16:51:51.476Z,35.88
2023-02-12T16:54:17.893Z,35.31
2023-02-12T16:56:44.300Z,35.12
2023-02-12T16:59:11.227Z,34.89
2023-02-12T17:01:37.741Z,34.89
2023-02-12T17:04:04.323Z,35.18
2023-02-12T17:06:31.078Z,34.24
2023-02-12T17:08:57.722Z,34.86
2023-02-12T17:11:24.528Z,34.89
2023-02-12T17:13:51.259Z,36.00
2023-02-12T17:16:31.140Z,36.53
2023-02-12T17:18:57.830Z,35.00
2023-02-12T17:21:24.178Z,36.24
2023-02-12T17:23:50.992Z,35.09
2023-02-12T17:26:17.893Z,37.07
2023-02-12T17:28:44.319Z,34.46
2023-02-12T17:31:10.803Z,34.36
2023-02-12T17:33:37.224Z,35.46
2023-02-12T17:36:04.635Z,36.26
2023-02-12T17:38:31.034Z,36.57
2023-02-12T17:40:57.695Z,36.15
2023-02-12T17:43:27.727Z,35.88
2023-02-12T17:45:54.175Z,36.80
2023-02-12T17:48:20.596Z,36.95
2023-02-12T17:50:47.029Z,37.61
2023-02-12T17:53:14.007Z,37.47
2023-02-12T17:55:43.260Z,36.47
2023-02-12T17:58:09.610Z,36.87
2023-02-12T18:00:36.010Z,36.79
2023-02-12T18:03:02.842Z,37.35
2023-02-12T18:05:29.211Z,38.52
2023-02-12T18:07:56.574Z,36.75
2023-02-12T18:10:23.404Z,37.24
2023-02-12T18:12:50.138Z,37.46
2023-02-12T18:15:18.786Z,37.71
2023-02-12T18:17:45.195Z,37.82
2023-02-12T18:20:13.755Z,37.27
2023-02-12T18:22:40.150Z,38.30
2023-02-12T18:25:06.523Z,38.76
2023-02-12T18:27:32.873Z,38.28
2023-02-12T18:30:01.309Z,36.81
2023-02-12T18:32:28.106Z,37.16
2023-02-12T18:35:00.992Z,37.38
2023-02-12T18:37:31.055Z,35.77
2023-02-12T18:39:57.737Z,36.71
2023-02-12T18:42:35.277Z,37.11
2023-02-12T18:45:02.261Z,36.50
2023-02-12T18:47:28.631Z,38.27
2023-02-12T18:49:55.093Z,36.70
2023-02-12T18:52:21.846Z,36.22
2023-02-12T18:54:48.340Z,37.18
2023-02-12T18:57:14.726Z,38.14
2023-02-12T18:59:41.319Z,38.18
2023-02-12T19:02:09.177Z,36.53
2023-02-12T19:04:38.505Z,36.00
2023-02-12T19:07:04.919Z,36.87
2023-02-12T19:09:33.941Z,38.71
2023-02-12T19:12:00.632Z,39.86
2023-02-12T19:14:27.341Z,38.76
2023-02-12T19:16:54.512Z,37.52
2023-02-12T19:19:24.047Z,37.06
2023-02-12T19:21:51.381Z,36.22
2023-02-12T19:24:17.768Z,36.30
2023-02-12T19:26:44.710Z,37.43
2023-02-12T19:29:11.615Z,37.31
2023-02-12T19:31:38.146Z,36.67
2023-02-12T19:34:06.535Z,35.79
2023-02-12T19:36:33.086Z,36.18
2023-02-12T19:38:59.500Z,36.44
2023-02-12T19:41:26.156Z,35.81
2023-02-12T19:43:52.552Z,36.04
2023-02-12T19:46:19.015Z,35.84
2023-02-12T19:48:48.091Z,35.47
2023-02-12T19:51:16.930Z,35.95
2023-02-12T19:53:43.400Z,36.30
2023-02-12T19:56:12.031Z,35.81
2023-02-12T19:58:38.612Z,35.68
2023-02-12T20:01:05.008Z,36.00
2023-02-12T20:03:31.400Z,37.10
2023-02-12T20:05:57.746Z,36.23
2023-02-12T20:08:24.084Z,35.73
2023-02-12T20:10:51.710Z,35.78
2023-02-12T20:13:19.092Z,36.73
2023-02-12T20:15:45.573Z,35.30
2023-02-12T20:18:14.265Z,36.06
2023-02-12T20:20:40.880Z,35.81
2023-02-12T20:23:07.373Z,37.16
2023-02-12T20:25:33.763Z,36.76
2023-02-12T20:28:00.200Z,36.78
2023-02-12T20:30:29.152Z,37.81
2023-02-12T20:32:55.650Z,37.65
2023-02-12T20:35:22.037Z,37.27
2023-02-12T20:37:48.491Z,37.92
2023-02-12T20:40:15.334Z,36.75
2023-02-12T20:42:41.933Z,38.31
2023-02-12T20:45:08.775Z,37.45
2023-02-12T20:47:35.412Z,36.14
2023-02-12T20:50:05.080Z,36.59
2023-02-12T20:52:34.313Z,36.73
2023-02-12T20:55:01.056Z,37.41
2023-02-12T20:57:28.049Z,37.60
2023-02-12T20:59:54.466Z,38.02
2023-02-12T21:02:23.137Z,36.76
2023-02-12T21:04:49.793Z,38.14
2023-02-12T21:07:16.357Z,36.52
2023-02-12T21:09:42.787Z,38.04
2023-02-12T21:12:16.243Z,37.24
2023-02-12T21:14:42.640Z,36.84
2023-02-12T21:17:11.328Z,38.54
2023-02-12T21:19:38.085Z,37.74
2023-02-12T21:22:04.524Z,37.37
2023-02-12T21:24:30.898Z,36.97
2023-02-12T21:26:58.569Z,37.20
2023-02-12T21:29:25.944Z,37.30
2023-02-12T21:34:32.617Z,36.61
2023-02-12T21:36:59.586Z,36.58
2023-02-12T21:39:27.167Z,35.89
2023-02-12T21:41:54.068Z,35.59
2023-02-12T21:44:22.242Z,35.55
2023-02-12T21:46:51.261Z,35.61
2023-02-12T21:49:18.717Z,36.10
2023-02-12T21:51:47.589Z,34.32
2023-02-12T21:54:14.171Z,33.04
2023-02-12T21:56:47.609Z,33.95
2023-02-12T21:59:14.307Z,34.39
2023-02-12T22:01:45.005Z,34.13
2023-02-12T22:04:11.393Z,32.83
2023-02-12T22:06:40.048Z,33.03
2023-02-12T22:09:06.766Z,31.88
2023-02-12T22:11:33.686Z,33.32
2023-02-12T22:14:00.112Z,32.24
2023-02-12T22:16:26.657Z,32.94
2023-02-12T22:18:58.293Z,32.76
2023-02-12T22:21:29.171Z,32.94
2023-02-12T22:26:36.136Z,33.10
2023-02-12T22:29:03.932Z,33.81
2023-02-12T22:31:30.815Z,33.46
2023-02-12T22:33:57.601Z,33.17
2023-02-12T22:36:24.015Z,33.16
2023-02-12T22:38:52.429Z,32.96
2023-02-12T22:41:18.838Z,33.51
2023-02-12T22:43:48.486Z,33.09
2023-02-12T22:46:15.161Z,32.52
2023-02-12T22:48:41.940Z,35.00
2023-02-12T22:51:08.722Z,34.34
2023-02-12T22:53:38.483Z,34.23
2023-02-12T22:56:04.849Z,34.76
2023-02-12T22:58:31.630Z,32.84
2023-02-12T23:00:58.397Z,35.01
2023-02-12T23:03:36.873Z,37.44
2023-02-12T23:06:03.527Z,36.94
2023-02-12T23:08:29.921Z,34.32
2023-02-12T23:10:56.554Z,34.21
2023-02-12T23:13:29.585Z,35.06
2023-02-12T23:15:57.742Z,34.91
2023-02-12T23:18:24.255Z,35.13
2023-02-12T23:20:50.670Z,34.26
2023-02-12T23:23:17.417Z,34.35
2023-02-12T23:25:43.863Z,33.48
2023-02-12T23:28:12.565Z,33.88
2023-02-12T23:30:39.135Z,33.27
2023-02-12T23:33:05.617Z,32.52
2023-02-12T23:35:32.007Z,31.86
2023-02-12T23:37:58.461Z,32.00
2023-02-12T23:40:25.211Z,32.10
2023-02-12T23:42:51.677Z,32.80
2023-02-12T23:45:18.255Z,33.62
2023-02-12T23:47:44.742Z,31.64
2023-02-12T23:50:11.238Z,31.64
2023-02-12T23:52:37.640Z,31.51
2023-02-12T23:55:05.011Z,31.28
2023-02-12T23:57:34.193Z,31.28
